Time;durP1;ratioP1;P1;durP2;ratioP2;P2;SDS_P1;SDS_P2;PMS_P1;PMS_P2;Temp;Humidity;BMP_temperature;BMP_pressure;BME280_temperature;BME280_humidity;BME280_pressure;Samples;Min_cycle;Max_cycle;Signal;HPM_P1;HPM_P2
2022/08/18 00:01:34;;;;;;;46.67;24.13;;;21.30;99.90;;;;;;4938799;29;20233;-74
2022/08/18 00:04:02;;;;;;;31.43;22.30;;;21.30;99.90;;;;;;4938252;29;20190;-73
2022/08/18 00:06:49;;;;;;;29.90;21.97;;;21.20;99.90;;;;;;4938817;29;20206;-74
2022/08/18 00:09:16;;;;;;;29.43;23.17;;;21.20;99.90;;;;;;4956040;29;20190;-74
2022/08/18 00:11:43;;;;;;;28.87;22.80;;;21.20;99.90;;;;;;4956016;29;20202;-72
2022/08/18 00:14:16;;;;;;;35.27;23.90;;;21.10;99.90;;;;;;4956291;29;20186;-73
2022/08/18 00:16:51;;;;;;;32.93;23.03;;;21.10;99.90;;;;;;4923856;29;20731;-75
2022/08/18 00:19:18;;;;;;;32.23;23.23;;;21.10;99.90;;;;;;4938986;29;20194;-73
2022/08/18 00:21:45;;;;;;;34.23;23.40;;;21.10;99.90;;;;;;4938073;29;20308;-75
2022/08/18 00:24:12;;;;;;;34.47;23.93;;;21.10;99.90;;;;;;4955787;29;20206;-72
2022/08/18 00:26:38;;;;;;;35.53;24.53;;;21.10;99.90;;;;;;4938910;29;20198;-71
2022/08/18 00:29:06;;;;;;;33.97;24.10;;;21.10;99.90;;;;;;4938348;29;20226;-73
2022/08/18 00:31:33;;;;;;;33.57;23.30;;;21.00;99.90;;;;;;4938820;29;20217;-74
2022/08/18 00:34:00;;;;;;;31.33;23.10;;;21.00;99.90;;;;;;4938532;29;20206;-73
2022/08/18 00:36:28;;;;;;;31.23;23.20;;;20.90;99.90;;;;;;4955849;29;20210;-73
2022/08/18 00:38:55;;;;;;;33.80;23.70;;;20.90;99.90;;;;;;4938152;29;20202;-73
2022/08/18 00:41:25;;;;;;;35.43;24.27;;;20.90;99.90;;;;;;4938806;29;20317;-74
2022/08/18 00:43:57;;;;;;;33.93;23.93;;;20.80;99.90;;;;;;4938232;29;20202;-72
2022/08/18 00:46:29;;;;;;;32.47;22.97;;;20.80;99.90;;;;;;4938636;29;20213;-75
2022/08/18 00:48:56;;;;;;;34.83;23.40;;;20.80;99.90;;;;;;4955444;29;20608;-73
2022/08/18 00:51:28;;;;;;;29.67;22.00;;;20.80;99.90;;;;;;4937882;29;20220;-72
2022/08/18 00:54:07;;;;;;;31.23;23.17;;;20.80;99.90;;;;;;4955402;29;20191;-73
2022/08/18 00:56:42;;;;;;;30.53;22.63;;;20.70;99.90;;;;;;4937980;29;20558;-75
2022/08/18 00:59:22;;;;;;;31.33;23.70;;;20.70;99.90;;;;;;4938022;29;20195;-75
2022/08/18 01:01:51;;;;;;;32.97;23.30;;;20.70;99.90;;;;;;4937905;29;20680;-73
2022/08/18 01:04:24;;;;;;;36.17;24.27;;;20.70;99.90;;;;;;4937824;29;20293;-75
2022/08/18 01:06:56;;;;;;;43.53;24.33;;;20.70;99.90;;;;;;4937945;29;20286;-74
2022/08/18 01:09:23;;;;;;;30.73;22.93;;;20.70;99.90;;;;;;4937933;29;20217;-74
2022/08/18 01:11:50;;;;;;;31.77;23.63;;;20.60;99.90;;;;;;4937898;29;20371;-74
2022/08/18 01:14:18;;;;;;;36.53;23.23;;;20.60;99.90;;;;;;4937777;29;20600;-73
2022/08/18 01:22:39;;;;;;;33.77;22.67;;;20.60;99.90;;;;;;4937404;29;20321;-73
2022/08/18 01:27:55;;;;;;;32.43;22.43;;;20.50;99.90;;;;;;4937872;29;20202;-73
2022/08/18 01:30:26;;;;;;;30.10;23.40;;;20.40;99.90;;;;;;4937782;29;20729;-75
2022/08/18 01:32:53;;;;;;;30.37;22.93;;;20.40;99.90;;;;;;4937618;29;20201;-75
2022/08/18 01:35:24;;;;;;;36.43;23.03;;;20.40;99.90;;;;;;4937769;29;20618;-73
2022/08/18 01:37:52;;;;;;;34.87;23.10;;;20.40;99.90;;;;;;4937764;29;20202;-73
2022/08/18 01:40:22;;;;;;;38.07;23.60;;;20.40;99.90;;;;;;4937872;29;20232;-73
2022/08/18 01:43:10;;;;;;;33.37;22.60;;;20.40;99.90;;;;;;4954317;29;20226;-73
2022/08/18 01:45:38;;;;;;;28.73;22.47;;;20.40;99.90;;;;;;4937537;29;20573;-71
2022/08/18 01:48:05;;;;;;;33.10;23.47;;;20.40;99.90;;;;;;4937289;29;20243;-72
2022/08/18 01:50:33;;;;;;;32.57;23.87;;;20.30;99.90;;;;;;4937414;29;20202;-74
2022/08/18 01:53:04;;;;;;;35.60;23.33;;;20.30;99.90;;;;;;4937254;29;20213;-73
2022/08/18 01:55:35;;;;;;;35.23;24.17;;;20.20;99.90;;;;;;4954652;29;20289;-74
2022/08/18 01:58:04;;;;;;;30.80;24.20;;;20.20;99.90;;;;;;4937816;29;20198;-74
2022/08/18 02:00:31;;;;;;;33.27;23.23;;;20.20;99.90;;;;;;4922093;29;20198;-74
2022/08/18 02:03:00;;;;;;;36.80;23.67;;;20.20;99.90;;;;;;4937065;29;20317;-74
2022/08/18 02:05:35;;;;;;;35.63;24.00;;;20.20;99.90;;;;;;4954960;29;20293;-74
2022/08/18 02:08:05;;;;;;;32.47;23.30;;;20.20;99.90;;;;;;4937672;29;20261;-72
2022/08/18 02:10:32;;;;;;;36.27;24.30;;;20.20;99.90;;;;;;4937537;29;20633;-73
2022/08/18 02:13:00;;;;;;;33.93;23.87;;;20.10;99.90;;;;;;4954365;29;20561;-73
2022/08/18 02:15:27;;;;;;;34.60;24.20;;;20.10;99.90;;;;;;4954479;29;20194;-74
2022/08/18 02:17:54;;;;;;;31.57;24.50;;;20.10;99.90;;;;;;4937773;29;20317;-74
2022/08/18 02:20:21;;;;;;;33.13;24.03;;;20.00;99.90;;;;;;4937520;29;20281;-74
2022/08/18 02:22:48;;;;;;;30.77;22.90;;;20.10;99.90;;;;;;4936708;29;20234;-72
2022/08/18 02:25:17;;;;;;;35.07;24.03;;;20.10;99.90;;;;;;4954308;29;20237;-73
2022/08/18 02:27:44;;;;;;;28.63;22.03;;;20.10;99.90;;;;;;4955076;28;20508;-74
2022/08/18 02:30:15;;;;;;;32.40;22.93;;;20.10;99.90;;;;;;4940258;29;20313;-74
2022/08/18 02:32:42;;;;;;;31.50;22.50;;;20.10;99.90;;;;;;4957951;29;20212;-74
2022/08/18 02:35:10;;;;;;;29.93;22.47;;;20.10;99.90;;;;;;4940851;29;20206;-74
2022/08/18 02:37:39;;;;;;;30.73;23.20;;;20.10;99.90;;;;;;4940642;29;20539;-73
2022/08/18 02:40:11;;;;;;;30.33;22.93;;;20.10;99.90;;;;;;4957709;29;20190;-74
2022/08/18 02:42:41;;;;;;;36.73;23.83;;;20.10;99.90;;;;;;4940249;29;20654;-76
2022/08/18 02:45:09;;;;;;;35.57;24.60;;;20.10;99.90;;;;;;4940399;29;20311;-75
2022/08/18 02:47:35;;;;;;;30.57;22.67;;;20.10;99.90;;;;;;4957660;29;20264;-75
2022/08/18 02:50:03;;;;;;;31.90;23.33;;;20.00;99.90;;;;;;4940647;29;20206;-75
2022/08/18 02:52:32;;;;;;;33.10;22.87;;;20.00;99.90;;;;;;4940048;29;20205;-75
2022/08/18 02:55:03;;;;;;;34.17;24.27;;;19.90;99.90;;;;;;4940270;29;20205;-76
2022/08/18 02:57:31;;;;;;;36.70;25.33;;;19.90;99.90;;;;;;4940085;29;20206;-76
2022/08/18 02:59:59;;;;;;;35.33;24.53;;;19.90;99.90;;;;;;4940682;29;20202;-75
2022/08/18 03:02:26;;;;;;;35.67;26.97;;;19.90;99.90;;;;;;4940278;29;20210;-74
2022/08/18 03:04:53;;;;;;;51.40;31.30;;;19.90;99.90;;;;;;4940436;29;20208;-73
2022/08/18 03:07:20;;;;;;;51.07;37.00;;;19.90;99.90;;;;;;4940495;29;20213;-74
2022/08/18 03:09:47;;;;;;;63.40;45.70;;;19.90;99.90;;;;;;4940120;29;20202;-73
2022/08/18 03:12:14;;;;;;;69.80;46.10;;;19.80;99.90;;;;;;4939453;29;20213;-75
2022/08/18 03:14:42;;;;;;;64.67;45.73;;;19.80;99.90;;;;;;4940413;29;20289;-73
2022/08/18 03:17:09;;;;;;;61.90;45.07;;;19.90;99.90;;;;;;4940127;29;20199;-73
2022/08/18 03:19:37;;;;;;;60.20;41.83;;;19.90;99.90;;;;;;4957203;29;20284;-74
2022/08/18 03:22:07;;;;;;;57.87;42.57;;;19.90;99.90;;;;;;4939511;29;20345;-73
2022/08/18 03:24:54;;;;;;;56.80;38.93;;;19.80;99.90;;;;;;4939528;29;20229;-74
2022/08/18 03:27:21;;;;;;;46.93;33.67;;;19.80;99.90;;;;;;4956976;29;20198;-73
2022/08/18 03:29:48;;;;;;;44.03;32.30;;;19.80;99.90;;;;;;4923544;29;20222;-72
2022/08/18 03:32:16;;;;;;;44.07;32.87;;;19.80;99.90;;;;;;4956767;29;20222;-74
2022/08/18 03:34:43;;;;;;;44.23;30.87;;;19.80;99.90;;;;;;4957111;29;20552;-75
2022/08/18 03:37:10;;;;;;;41.33;31.07;;;19.70;99.90;;;;;;4923430;29;20212;-74
2022/08/18 03:39:37;;;;;;;40.53;29.47;;;19.80;99.90;;;;;;4939270;29;20277;-74
2022/08/18 03:42:04;;;;;;;44.57;28.87;;;19.80;99.90;;;;;;4939272;29;20751;-74
2022/08/18 03:44:34;;;;;;;37.57;27.93;;;19.70;99.90;;;;;;4956360;29;20224;-73
2022/08/18 03:47:06;;;;;;;43.03;26.67;;;19.70;99.90;;;;;;4956818;29;20194;-73
2022/08/18 03:49:32;;;;;;;39.13;27.03;;;19.70;99.90;;;;;;4939509;29;20194;-73
2022/08/18 03:52:00;;;;;;;35.80;26.83;;;19.70;99.90;;;;;;4939236;29;20230;-73
2022/08/18 03:54:30;;;;;;;34.77;25.50;;;19.70;99.90;;;;;;4938989;29;20194;-74
2022/08/18 03:56:59;;;;;;;36.03;25.37;;;19.70;99.90;;;;;;4939160;29;20625;-74
2022/08/18 03:59:43;;;;;;;34.43;24.93;;;19.80;99.90;;;;;;4939094;29;20182;-74
2022/08/18 04:02:10;;;;;;;33.50;24.77;;;19.80;99.90;;;;;;4956408;29;20214;-73
2022/08/18 04:04:37;;;;;;;31.70;24.73;;;19.80;99.90;;;;;;4939635;29;20217;-73
2022/08/18 04:07:15;;;;;;;39.27;25.80;;;19.80;99.90;;;;;;4938846;29;20233;-74
2022/08/18 04:09:42;;;;;;;42.67;26.83;;;19.80;99.90;;;;;;4939135;29;20202;-74
2022/08/18 04:12:14;;;;;;;37.63;25.43;;;19.80;99.90;;;;;;4939326;29;20209;-73
2022/08/18 04:14:46;;;;;;;35.27;26.70;;;19.80;99.90;;;;;;4938593;29;20206;-74
2022/08/18 04:17:16;;;;;;;34.17;25.60;;;19.80;99.90;;;;;;4938830;29;20198;-76
2022/08/18 04:19:43;;;;;;;31.47;24.13;;;19.90;99.90;;;;;;4938716;29;20529;-73
2022/08/18 04:22:10;;;;;;;33.00;24.23;;;19.90;99.90;;;;;;4938137;29;20218;-78
2022/08/18 04:24:44;;;;;;;31.70;23.57;;;19.90;99.90;;;;;;4938690;29;20293;-74
2022/08/18 04:27:11;;;;;;;33.10;24.13;;;19.90;99.90;;;;;;4938551;29;20194;-72
2022/08/18 04:29:38;;;;;;;32.30;23.17;;;19.90;99.90;;;;;;4938081;29;20691;-74
2022/08/18 04:32:05;;;;;;;30.97;23.90;;;19.90;99.90;;;;;;4938439;29;20210;-75
2022/08/18 04:34:33;;;;;;;29.40;22.80;;;19.90;99.90;;;;;;4938446;29;20230;-74
2022/08/18 04:37:01;;;;;;;31.00;23.23;;;20.00;99.90;;;;;;4930488;29;20209;-73
2022/08/18 04:39:29;;;;;;;30.07;22.63;;;20.00;99.90;;;;;;4937405;29;20206;-74
2022/08/18 04:41:58;;;;;;;32.83;22.70;;;20.00;99.90;;;;;;4938140;29;20198;-74
2022/08/18 04:44:25;;;;;;;34.60;24.50;;;20.10;99.90;;;;;;4955273;29;20206;-73
2022/08/18 04:46:53;;;;;;;33.30;24.23;;;20.10;99.90;;;;;;4937993;29;20229;-74
2022/08/18 04:49:24;;;;;;;29.27;22.77;;;20.10;99.90;;;;;;4938000;29;20285;-73
2022/08/18 04:55:00;;;;;;;32.40;22.33;;;20.20;99.90;;;;;;4938025;29;20201;-74
2022/08/18 04:57:28;;;;;;;32.77;24.17;;;20.20;99.90;;;;;;4937897;29;20688;-73
2022/08/18 04:59:59;;;;;;;35.07;24.60;;;20.30;99.90;;;;;;4922839;29;20564;-75
2022/08/18 05:02:26;;;;;;;34.37;23.80;;;20.30;99.90;;;;;;4955045;29;20232;-74
2022/08/18 05:04:53;;;;;;;35.70;23.40;;;20.40;99.90;;;;;;4937997;29;20194;-74
2022/08/18 05:07:21;;;;;;;33.27;24.10;;;20.40;99.90;;;;;;4937943;29;20198;-74
2022/08/18 05:09:49;;;;;;;30.90;23.03;;;20.50;99.90;;;;;;4937565;29;20274;-75
2022/08/18 05:12:16;;;;;;;32.07;24.17;;;20.50;99.90;;;;;;4938015;29;20542;-76
2022/08/18 05:14:46;;;;;;;33.17;24.10;;;20.60;99.90;;;;;;4953893;29;20277;-76
2022/08/18 05:17:14;;;;;;;32.10;23.37;;;20.70;99.90;;;;;;4954909;29;20281;-76
2022/08/18 05:19:44;;;;;;;42.10;24.83;;;20.80;99.90;;;;;;4937788;29;20224;-76
2022/08/18 05:22:16;;;;;;;50.27;25.60;;;20.80;99.90;;;;;;4954428;29;20222;-76
2022/08/18 05:24:44;;;;;;;30.33;22.37;;;20.90;99.90;;;;;;4935478;29;20203;-75
2022/08/18 05:27:12;;;;;;;35.37;22.57;;;20.90;99.90;;;;;;4918567;29;20732;-74
2022/08/18 05:29:39;;;;;;;31.63;21.70;;;20.90;99.90;;;;;;4918834;29;20237;-75
2022/08/18 05:32:13;;;;;;;35.40;22.40;;;21.00;99.90;;;;;;4919153;29;20227;-76
2022/08/18 05:35:09;;;;;;;31.37;22.17;;;21.10;99.90;;;;;;4936822;29;20202;-75
2022/08/18 05:37:49;;;;;;;29.87;21.27;;;21.10;99.90;;;;;;4935447;29;20186;-74
2022/08/18 05:40:23;;;;;;;27.13;20.63;;;21.20;99.90;;;;;;4936336;29;20202;-76
2022/08/18 05:42:50;;;;;;;30.60;21.03;;;21.30;99.90;;;;;;4937203;29;20229;-77
2022/08/18 05:45:18;;;;;;;29.13;21.13;;;21.30;99.90;;;;;;4954629;29;20198;-78
2022/08/18 05:47:46;;;;;;;31.57;20.27;;;21.40;99.90;;;;;;4953652;29;20281;-77
2022/08/18 05:50:18;;;;;;;33.03;21.47;;;21.40;99.90;;;;;;4954651;29;20195;-77
2022/08/18 05:52:59;;;;;;;26.13;19.33;;;21.60;99.90;;;;;;4921311;29;20216;-77
2022/08/18 05:58:50;;;;;;;28.60;21.00;;;21.70;99.90;;;;;;4953497;29;20281;-76
2022/08/18 06:01:28;;;;;;;36.53;21.53;;;21.70;99.90;;;;;;4937486;29;20217;-77
2022/08/18 06:04:15;;;;;;;35.47;21.40;;;21.70;99.90;;;;;;4939844;29;20233;-76
2022/08/18 06:06:43;;;;;;;34.07;21.43;;;21.80;99.90;;;;;;4940688;29;20304;-76
2022/08/18 06:09:21;;;;;;;31.17;20.97;;;21.80;99.90;;;;;;4956783;29;20205;-76
2022/08/18 06:11:49;;;;;;;33.23;20.87;;;21.90;99.90;;;;;;4942568;29;20229;-77
2022/08/18 06:14:16;;;;;;;34.43;22.43;;;22.00;99.90;;;;;;4938754;29;20186;-76
2022/08/18 06:17:06;;;;;;;27.97;21.20;;;22.10;99.90;;;;;;4932517;29;20541;-76
2022/08/18 06:19:55;;;;;;;28.37;21.40;;;22.20;99.90;;;;;;4939650;29;20208;-76
2022/08/18 06:22:58;;;;;;;26.63;20.50;;;22.30;99.90;;;;;;4931093;29;20313;-75
2022/08/18 06:25:34;;;;;;;28.10;20.00;;;22.40;99.90;;;;;;4932278;29;20226;-76
2022/08/18 06:28:04;;;;;;;27.90;20.30;;;22.50;99.90;;;;;;4933252;29;20675;-76
2022/08/18 06:31:01;;;;;;;27.57;20.57;;;22.50;99.90;;;;;;4938072;29;20298;-77
2022/08/18 06:33:31;;;;;;;25.73;19.63;;;22.60;99.90;;;;;;4938300;29;20289;-75
2022/08/18 06:36:07;;;;;;;28.73;20.13;;;22.70;99.90;;;;;;4939260;29;20198;-78
2022/08/18 06:39:12;;;;;;;32.50;20.87;;;22.80;99.90;;;;;;4954698;29;20198;-76
2022/08/18 06:41:47;;;;;;;31.63;19.97;;;23.00;99.90;;;;;;4869322;29;20209;-76
2022/08/18 06:44:36;;;;;;;25.23;18.60;;;23.10;99.90;;;;;;4864347;29;20296;-76
2022/08/18 06:47:03;;;;;;;25.33;19.33;;;23.20;99.90;;;;;;4859566;29;20661;-77
2022/08/18 06:49:53;;;;;;;26.40;19.30;;;23.30;99.90;;;;;;4855414;29;20649;-78
2022/08/18 06:52:25;;;;;;;25.13;19.17;;;23.40;99.90;;;;;;4866459;29;20592;-79
2022/08/18 06:54:55;;;;;;;26.30;19.85;;;23.50;99.90;;;;;;4863765;29;20228;-76
2022/08/18 06:57:56;;;;;;;27.70;20.03;;;23.60;99.90;;;;;;4864218;29;20318;-78
2022/08/18 07:00:26;;;;;;;35.90;19.00;;;23.70;99.90;;;;;;4849350;29;20203;-75
2022/08/18 07:03:16;;;;;;;26.30;18.83;;;23.70;99.90;;;;;;4860772;29;20233;-77
2022/08/18 07:06:07;;;;;;;23.80;17.58;;;23.90;99.90;;;;;;4861033;29;20202;-73
2022/08/18 07:08:40;;;;;;;22.85;16.90;;;24.00;99.90;;;;;;4848107;29;20300;-77
2022/08/18 07:11:23;;;;;;;19.83;15.50;;;24.10;99.90;;;;;;4860137;29;20708;-77
2022/08/18 07:13:54;;;;;;;18.77;14.83;;;24.20;99.90;;;;;;4858602;29;20213;-77
2022/08/18 07:16:41;;;;;;;20.10;15.80;;;24.30;99.90;;;;;;4861263;29;20207;-79
2022/08/18 07:19:32;;;;;;;21.00;16.02;;;24.40;99.90;;;;;;4928621;29;20208;-80
2022/08/18 07:22:08;;;;;;;23.65;15.57;;;24.50;99.90;;;;;;4929461;29;20330;-79
2022/08/18 07:24:44;;;;;;;19.40;14.65;;;24.60;99.90;;;;;;4950569;29;21022;-77
2022/08/18 07:27:12;;;;;;;22.55;16.30;;;24.70;99.90;;;;;;4938814;29;20198;-76
2022/08/18 07:30:04;;;;;;;35.93;17.23;;;24.80;99.90;;;;;;4935165;29;20344;-78
2022/08/18 07:32:50;;;;;;;37.40;17.00;;;24.80;99.90;;;;;;4943174;29;20209;-81
2022/08/18 07:35:26;;;;;;;36.60;16.70;;;24.80;99.90;;;;;;4937554;29;20563;-76
2022/08/18 07:38:07;;;;;;;36.08;18.20;;;24.90;99.90;;;;;;4934364;29;20201;-76
2022/08/18 07:41:19;;;;;;;17.13;13.70;;;24.90;99.90;;;;;;4935227;29;20656;-78
2022/08/18 07:43:52;;;;;;;17.42;14.15;;;24.90;99.90;;;;;;4906378;29;20643;-80
2022/08/18 07:46:42;;;;;;;18.75;12.85;;;25.00;99.90;;;;;;4919287;29;20654;-77
2022/08/18 07:49:15;;;;;;;19.75;12.00;;;25.00;99.90;;;;;;4918877;29;20297;-81
2022/08/18 07:52:08;;;;;;;27.42;13.70;;;25.10;99.90;;;;;;4936813;29;20297;-78
2022/08/18 07:55:19;;;;;;;18.45;10.40;;;25.20;99.90;;;;;;4922787;29;20199;-75
2022/08/18 07:58:01;;;;;;;17.02;10.82;;;25.20;99.90;;;;;;4954768;29;20505;-76
2022/08/18 08:00:30;;;;;;;19.85;11.85;;;25.30;99.90;;;;;;4938765;29;20209;-77
2022/08/18 08:09:15;;;;;;;15.45;10.98;;;25.50;99.90;;;;;;4930930;29;20220;-78
2022/08/18 08:12:16;;;;;;;15.57;11.57;;;25.90;99.90;;;;;;4940061;23;20692;-76
2022/08/18 08:14:59;;;;;;;15.15;10.90;;;27.20;99.90;;;;;;4829584;29;20211;-75
2022/08/18 08:17:52;;;;;;;15.70;11.07;;;28.20;99.90;;;;;;4859664;29;20296;-78
2022/08/18 08:20:43;;;;;;;18.55;11.80;;;29.00;99.90;;;;;;4859610;29;20202;-75
2022/08/18 08:23:50;;;;;;;16.48;11.57;;;29.30;99.90;;;;;;4859166;29;20687;-77
2022/08/18 08:26:46;;;;;;;22.25;13.40;;;29.80;99.90;;;;;;4858396;29;20297;-76
2022/08/18 08:29:46;;;;;;;15.02;12.07;;;29.90;99.90;;;;;;4847631;29;20407;-77
2022/08/18 08:32:40;;;;;;;16.02;11.57;;;30.20;99.90;;;;;;4877729;29;20212;-77
2022/08/18 08:35:47;;;;;;;16.60;11.82;;;30.60;99.90;;;;;;4878274;29;20292;-76
2022/08/18 08:38:23;;;;;;;18.67;12.40;;;30.80;99.90;;;;;;4804962;29;20211;-74
2022/08/18 08:41:34;;;;;;;14.02;11.18;;;30.90;99.90;;;;;;4822105;29;20244;-75
2022/08/18 08:44:30;;;;;;;18.05;11.80;;;31.30;99.90;;;;;;4822014;29;20230;-81
2022/08/18 08:47:07;;;;;;;13.88;11.05;;;31.60;99.90;;;;;;4822298;29;20311;-72
2022/08/18 08:49:41;;;;;;;17.27;11.02;;;31.80;99.90;;;;;;4810164;29;20205;-74
2022/08/18 08:52:20;;;;;;;17.98;11.68;;;31.60;99.90;;;;;;4840486;29;20252;-72
2022/08/18 08:55:06;;;;;;;15.75;11.30;;;31.90;99.90;;;;;;4842478;29;20240;-72
2022/08/18 08:57:38;;;;;;;14.05;11.68;;;32.00;99.90;;;;;;4831359;29;20218;-72
2022/08/18 09:00:10;;;;;;;14.15;11.38;;;31.80;99.90;;;;;;4842065;29;20234;-72
2022/08/18 09:03:19;;;;;;;14.73;10.95;;;31.80;99.90;;;;;;4845633;29;20350;-72
2022/08/18 09:06:02;;;;;;;15.20;11.15;;;31.80;99.90;;;;;;4858270;29;20235;-72
2022/08/18 09:08:41;;;;;;;13.90;10.40;;;31.60;99.90;;;;;;4842218;29;20260;-76
2022/08/18 09:11:35;;;;;;;14.52;10.32;;;31.70;99.90;;;;;;4859901;29;20249;-76
2022/08/18 09:14:16;;;;;;;15.45;9.85;;;32.00;99.90;;;;;;4909519;29;20209;-74
2022/08/18 09:17:22;;;;;;;17.00;10.13;;;31.90;99.90;;;;;;4918517;29;20301;-72
2022/08/18 09:20:11;;;;;;;14.77;10.52;;;32.10;99.90;;;;;;4900716;29;20213;-73
2022/08/18 09:22:41;;;;;;;17.05;9.90;;;32.00;99.90;;;;;;4909880;29;20295;-72
2022/08/18 09:25:28;;;;;;;13.35;9.63;;;32.00;99.90;;;;;;4899110;29;20325;-72
2022/08/18 09:28:18;;;;;;;11.25;9.23;;;32.00;99.90;;;;;;4899014;29;20653;-73
2022/08/18 09:30:47;;;;;;;14.85;9.13;;;32.10;99.90;;;;;;4883689;29;20320;-71
2022/08/18 09:33:31;;;;;;;15.32;9.20;;;31.90;99.90;;;;;;4899500;29;20203;-72
2022/08/18 09:36:17;;;;;;;15.23;9.35;;;31.90;99.90;;;;;;4916521;29;20193;-72
2022/08/18 09:42:13;;;;;;;13.52;8.80;;;32.20;99.90;;;;;;4916697;29;20196;-75
2022/08/18 09:44:47;;;;;;;14.00;8.63;;;32.70;99.90;;;;;;4899401;29;20275;-74
2022/08/18 09:47:20;;;;;;;12.30;7.90;;;33.00;99.90;;;;;;4916390;29;20196;-71
2022/08/18 09:49:54;;;;;;;13.90;8.02;;;33.40;99.90;;;;;;4899706;29;20285;-72
2022/08/18 09:52:21;;;;;;;9.68;6.85;;;33.10;99.90;;;;;;4899131;29;20295;-72
2022/08/18 09:55:16;;;;;;;16.58;8.27;;;32.80;99.90;;;;;;4899220;29;20314;-72
2022/08/18 09:57:46;;;;;;;8.80;7.28;;;33.10;99.90;;;;;;4883822;29;20195;-73
2022/08/18 10:00:27;;;;;;;11.48;7.28;;;33.30;99.90;;;;;;4899340;29;20299;-71
2022/08/18 10:02:54;;;;;;;9.80;7.32;;;33.50;99.90;;;;;;4899510;29;20214;-73
2022/08/18 10:05:28;;;;;;;13.43;7.63;;;33.60;99.90;;;;;;4899250;29;20279;-74
2022/08/18 10:08:04;;;;;;;11.55;7.60;;;33.60;99.90;;;;;;4916246;29;20227;-72
2022/08/18 10:10:50;;;;;;;11.57;7.18;;;33.90;99.90;;;;;;4898844;29;20217;-73
2022/08/18 10:14:05;;;;;;;10.15;6.85;;;34.10;99.90;;;;;;4899226;29;20282;-72
2022/08/18 10:16:51;;;;;;;11.20;6.72;;;34.30;99.90;;;;;;4883721;29;20211;-71
2022/08/18 10:20:19;;;;;;;8.75;6.90;;;34.60;98.90;;;;;;4899453;29;20191;-72
2022/08/18 10:22:53;;;;;;;8.48;6.40;;;34.80;99.80;;;;;;4900331;29;20227;-73
2022/08/18 10:25:37;;;;;;;9.35;6.90;;;34.80;97.90;;;;;;4899164;29;20258;-72
2022/08/18 10:28:11;;;;;;;10.05;6.88;;;35.10;97.20;;;;;;4899222;29;20204;-74
2022/08/18 10:30:38;;;;;;;12.00;6.78;;;35.20;95.30;;;;;;4899212;29;20219;-75
2022/08/18 10:33:53;;;;;;;11.70;7.10;;;35.10;96.20;;;;;;4899328;29;20218;-74
2022/08/18 10:36:57;;;;;;;8.45;7.20;;;35.20;96.20;;;;;;4899430;29;20219;-73
2022/08/18 10:39:37;;;;;;;11.45;7.03;;;35.40;95.00;;;;;;4899137;29;20195;-76
2022/08/18 10:42:31;;;;;;;9.45;6.40;;;35.40;93.70;;;;;;4899405;29;20299;-73
2022/08/18 10:45:23;;;;;;;9.88;6.75;;;35.60;93.90;;;;;;4899179;29;20587;-74
2022/08/18 10:48:29;;;;;;;10.13;7.18;;;35.40;94.60;;;;;;4915777;29;20196;-73
2022/08/18 10:51:20;;;;;;;10.95;7.70;;;35.40;94.10;;;;;;4919222;29;20195;-74
2022/08/18 10:54:02;;;;;;;9.23;6.35;;;35.80;94.00;;;;;;4886849;29;20203;-74
2022/08/18 10:56:47;;;;;;;8.55;5.93;;;35.90;91.70;;;;;;4902145;29;20650;-74
2022/08/18 10:59:34;;;;;;;7.68;6.45;;;36.20;91.10;;;;;;4919552;29;20693;-75
2022/08/18 11:02:33;;;;;;;8.85;6.28;;;36.10;89.90;;;;;;4889035;29;20294;-76
2022/08/18 11:05:10;;;;;;;9.50;6.68;;;36.30;90.40;;;;;;4901989;29;20223;-74
2022/08/18 11:07:41;;;;;;;10.30;6.40;;;36.50;88.30;;;;;;4902001;29;20194;-79
2022/08/18 11:10:20;;;;;;;10.05;6.57;;;36.10;89.10;;;;;;4919117;29;20196;-76
2022/08/18 11:13:06;;;;;;;8.65;6.30;;;36.40;90.30;;;;;;4887566;29;20211;-73
2022/08/18 11:15:54;;;;;;;7.80;6.05;;;36.60;88.20;;;;;;4901713;29;20207;-76
2022/08/18 11:18:42;;;;;;;10.50;6.38;;;36.80;87.50;;;;;;4902062;29;20254;-74
2022/08/18 11:21:36;;;;;;;9.98;6.82;;;36.60;85.50;;;;;;4919060;29;20247;-78
2022/08/18 11:24:11;;;;;;;6.80;6.15;;;36.50;86.50;;;;;;4918444;29;20263;-75
2022/08/18 11:27:03;;;;;;;8.52;6.07;;;36.70;86.60;;;;;;4901565;29;20208;-74
2022/08/18 11:29:47;;;;;;;9.57;7.00;;;36.50;86.20;;;;;;4903703;29;20226;-74
2022/08/18 11:32:29;;;;;;;12.50;6.82;;;36.70;85.60;;;;;;4917649;29;20227;-73
2022/08/18 11:34:58;;;;;;;8.88;6.57;;;36.90;84.80;;;;;;4901411;29;20224;-73
2022/08/18 11:37:37;;;;;;;7.85;6.20;;;37.00;83.60;;;;;;4901636;29;20562;-73
2022/08/18 11:40:37;;;;;;;7.95;6.53;;;36.90;82.50;;;;;;4901318;29;20223;-75
2022/08/18 11:43:31;;;;;;;11.25;6.68;;;37.20;81.60;;;;;;4918285;29;20682;-74
2022/08/18 11:46:24;;;;;;;8.90;6.80;;;37.30;80.40;;;;;;4901116;29;20234;-73
2022/08/18 11:49:24;;;;;;;8.30;6.78;;;37.60;81.20;;;;;;4900980;29;20231;-74
2022/08/18 11:52:05;;;;;;;9.93;6.43;;;37.80;79.20;;;;;;4901107;29;20199;-73
2022/08/18 11:54:38;;;;;;;13.05;7.30;;;37.90;78.40;;;;;;4901221;29;20250;-76
2022/08/18 11:57:40;;;;;;;11.23;7.18;;;38.10;79.10;;;;;;4918005;29;20282;-76
2022/08/18 12:00:38;;;;;;;9.32;6.15;;;38.30;77.40;;;;;;4900105;29;20298;-76
2022/08/18 12:03:15;;;;;;;7.18;5.88;;;38.60;75.30;;;;;;4900853;29;20196;-77
2022/08/18 12:05:55;;;;;;;7.22;5.70;;;38.60;74.20;;;;;;4900504;29;20223;-74
2022/08/18 12:08:34;;;;;;;6.78;6.00;;;38.70;71.60;;;;;;4900567;29;20301;-74
2022/08/18 12:11:25;;;;;;;8.30;6.05;;;38.50;70.00;;;;;;4900258;29;20231;-73
2022/08/18 12:14:06;;;;;;;8.43;6.18;;;38.20;71.00;;;;;;4900707;29;20287;-74
2022/08/18 12:16:53;;;;;;;8.23;5.97;;;38.00;71.40;;;;;;4900408;29;20210;-74
2022/08/18 12:19:21;;;;;;;7.90;5.80;;;38.10;70.70;;;;;;4900538;29;20721;-72
2022/08/18 12:21:50;;;;;;;8.48;5.75;;;38.20;70.30;;;;;;4900397;29;20239;-73
2022/08/18 12:24:29;;;;;;;6.53;5.80;;;37.60;69.90;;;;;;4900570;29;20298;-72
2022/08/18 12:27:08;;;;;;;9.00;6.03;;;37.50;71.80;;;;;;4900461;29;20207;-72
2022/08/18 12:29:47;;;;;;;9.45;6.07;;;37.30;71.00;;;;;;4900407;29;20298;-73
2022/08/18 12:32:15;;;;;;;18.70;7.55;;;37.10;72.70;;;;;;4900301;29;20207;-72
2022/08/18 12:35:06;;;;;;;11.77;6.60;;;37.10;73.50;;;;;;4900543;29;20219;-71
2022/08/18 12:37:53;;;;;;;14.45;7.13;;;36.70;73.10;;;;;;4900488;29;20657;-73
2022/08/18 12:40:39;;;;;;;10.77;6.47;;;36.80;73.90;;;;;;4900769;29;20203;-72
2022/08/18 12:43:06;;;;;;;11.43;6.32;;;37.00;74.20;;;;;;4917310;29;20197;-72
2022/08/18 12:45:34;;;;;;;8.13;6.22;;;37.00;73.70;;;;;;4900299;29;20234;-73
2022/08/18 12:48:04;;;;;;;8.80;6.70;;;37.50;74.30;;;;;;4900146;29;20199;-72
2022/08/18 12:50:34;;;;;;;9.45;6.57;;;37.40;73.50;;;;;;4900337;29;20211;-72
2022/08/18 12:53:16;;;;;;;8.43;6.53;;;37.20;72.30;;;;;;4917282;29;20196;-74
2022/08/18 12:55:44;;;;;;;9.50;6.38;;;37.10;72.30;;;;;;4900270;29;20343;-73
2022/08/18 12:58:11;;;;;;;11.90;6.82;;;36.90;74.50;;;;;;4900326;29;20226;-72
2022/08/18 13:00:39;;;;;;;8.50;6.70;;;37.10;73.90;;;;;;4916880;29;20199;-73
2022/08/18 13:03:08;;;;;;;11.07;6.80;;;37.20;74.10;;;;;;4899857;29;20200;-74
2022/08/18 13:05:36;;;;;;;14.25;7.82;;;37.10;72.70;;;;;;4899902;29;20219;-71
2022/08/18 13:08:08;;;;;;;12.73;7.35;;;36.80;74.60;;;;;;4900025;29;20200;-71
2022/08/18 13:10:38;;;;;;;12.45;6.50;;;37.00;74.50;;;;;;4916819;29;20191;-71
2022/08/18 13:13:13;;;;;;;12.25;7.03;;;36.90;73.90;;;;;;4899429;29;20575;-73
2022/08/18 13:15:40;;;;;;;8.10;6.53;;;37.10;74.80;;;;;;4900098;29;20199;-77
2022/08/18 13:18:24;;;;;;;10.43;7.18;;;36.90;72.70;;;;;;4899753;29;20278;-77
2022/08/18 13:20:56;;;;;;;9.43;6.60;;;36.40;74.50;;;;;;4899943;29;20188;-73
2022/08/18 13:23:25;;;;;;;8.38;6.57;;;36.20;74.40;;;;;;4899715;29;20210;-71
2022/08/18 13:25:54;;;;;;;7.95;6.68;;;36.20;76.00;;;;;;4899863;29;20227;-72
2022/08/18 13:28:30;;;;;;;7.18;6.45;;;36.40;77.30;;;;;;4900030;29;20194;-72
2022/08/18 13:31:16;;;;;;;10.35;6.82;;;36.30;76.60;;;;;;4899366;29;20231;-71
2022/08/18 13:33:44;;;;;;;8.52;6.60;;;36.10;76.10;;;;;;4899816;29;20200;-72
2022/08/18 13:36:43;;;;;;;9.48;7.15;;;35.80;76.10;;;;;;4916546;29;20196;-71
2022/08/18 13:39:17;;;;;;;9.02;6.80;;;35.50;76.90;;;;;;4899687;29;20306;-72
2022/08/18 13:41:46;;;;;;;9.50;7.25;;;35.40;76.90;;;;;;4916599;29;20478;-86
2022/08/18 13:44:17;;;;;;;9.00;7.00;;;35.10;77.30;;;;;;4899597;29;20633;-71